Time;durP1;ratioP1;P1;durP2;ratioP2;P2;SDS_P1;SDS_P2;PMS_P1;PMS_P2;Temp;Humidity;BMP_temperature;BMP_pressure;BME280_temperature;BME280_humidity;BME280_pressure;Samples;Min_cycle;Max_cycle;Signal;HPM_P1;HPM_P2
2023/04/06 00:01:48;;;;;;;14.43;8.60;;;;;;;3.80;67.33;101638.53;4961943;28;20037;-93
2023/04/06 00:04:16;;;;;;;18.38;8.70;;;;;;;3.76;67.93;101624.53;4977368;28;20025;-94
2023/04/06 00:06:46;;;;;;;18.65;8.40;;;;;;;3.81;67.80;101629.47;4995161;28;20034;-93
2023/04/06 00:09:16;;;;;;;15.55;8.30;;;;;;;3.74;68.62;101629.22;4960785;28;20104;-94
2023/04/06 00:11:47;;;;;;;15.35;8.60;;;;;;;3.71;68.84;101616.13;4961896;28;20038;-93
2023/04/06 00:14:21;;;;;;;17.17;8.38;;;;;;;3.68;68.36;101622.63;5010498;28;20363;-93
2023/04/06 00:16:52;;;;;;;17.02;8.40;;;;;;;3.73;70.75;101632.06;4962935;28;20026;-94
2023/04/06 00:19:22;;;;;;;15.85;8.65;;;;;;;3.65;72.54;101619.41;4977630;28;20038;-94
2023/04/06 00:21:57;;;;;;;14.50;8.40;;;;;;;3.69;72.72;101626.16;4993430;28;20034;-93
2023/04/06 00:24:40;;;;;;;14.05;8.35;;;;;;;3.63;70.39;101613.34;4977861;28;20026;-94
2023/04/06 00:27:05;;;;;;;18.42;8.27;;;;;;;3.67;70.50;101620.09;5010764;28;20064;-94
2023/04/06 00:29:34;;;;;;;14.13;8.13;;;;;;;3.64;70.04;101602.44;4976993;28;20050;-95
2023/04/06 00:32:02;;;;;;;15.63;8.73;;;;;;;3.66;70.50;101611.22;4977860;28;20541;-93
2023/04/06 00:34:33;;;;;;;15.05;8.32;;;;;;;3.63;73.60;101608.84;4977648;28;20045;-94
2023/04/06 00:37:01;;;;;;;15.15;8.02;;;;;;;3.65;72.16;101612.19;4994377;28;20553;-94
2023/04/06 00:39:27;;;;;;;15.30;7.78;;;;;;;3.60;73.16;101605.59;4962280;28;20046;-94
2023/04/06 00:41:56;;;;;;;16.73;8.80;;;;;;;3.64;74.01;101612.34;4977183;28;20094;-94
2023/04/06 00:44:24;;;;;;;16.38;9.07;;;;;;;3.56;73.04;101602.38;4980729;28;20034;-94
2023/04/06 00:47:02;;;;;;;;;;;;;;;;;;;;;
2023/04/06 00:49:30;;;;;;;16.33;9.15;;;;;;;3.51;73.68;101599.28;4982963;28;20379;-93
2023/04/06 00:52:07;;;;;;;16.42;8.18;;;;;;;3.50;73.92;101594.94;4965683;28;20061;-94
2023/04/06 00:54:34;;;;;;;15.40;8.52;;;;;;;3.39;72.96;101579.88;4981767;28;20467;-95
2023/04/06 00:57:00;;;;;;;15.38;8.30;;;;;;;3.37;71.75;101581.03;4981695;28;20543;-94
2023/04/06 00:59:30;;;;;;;16.60;8.50;;;;;;;3.39;67.44;101581.72;4980616;28;20030;-94
2023/04/06 01:01:56;;;;;;;15.80;8.20;;;;;;;3.34;67.03;101574.13;4965491;28;20108;-95
2023/04/06 01:04:40;;;;;;;;;;;;;;;;;;;;;
2023/04/06 01:07:11;;;;;;;16.52;7.75;;;;;;;3.34;65.25;101577.63;4998598;28;20031;-94
2023/04/06 01:09:36;;;;;;;15.52;8.38;;;;;;;3.36;64.92;101576.66;4981095;28;20524;-94
2023/04/06 01:12:03;;;;;;;13.43;7.73;;;;;;;3.39;64.68;101576.34;4981094;28;20038;-94
2023/04/06 01:14:31;;;;;;;13.85;7.35;;;;;;;3.36;64.30;101564.06;4964830;28;20497;-94
2023/04/06 01:17:02;;;;;;;17.23;8.10;;;;;;;3.38;64.35;101564.78;4997972;28;20458;-95
2023/04/06 01:19:50;;;;;;;17.30;8.27;;;;;;;3.38;64.32;101566.59;4997903;28;20030;-93
2023/04/06 01:22:23;;;;;;;17.23;8.80;;;;;;;3.49;64.26;101580.66;4968499;28;20034;-93
2023/04/06 01:24:51;;;;;;;16.15;7.88;;;;;;;3.45;63.68;101571.22;4965460;28;20125;-94
2023/04/06 01:27:17;;;;;;;18.80;8.45;;;;;;;3.39;63.70;101565.63;4980796;28;20023;-93
2023/04/06 01:29:45;;;;;;;15.90;8.40;;;;;;;3.38;63.89;101561.25;4981500;28;20018;-94
2023/04/06 01:32:16;;;;;;;16.13;8.70;;;;;;;3.36;63.75;101565.94;4952848;28;20384;-93
2023/04/06 01:34:54;;;;;;;;;;;;;;;;;;;;;
2023/04/06 01:40:07;;;;;;;15.40;8.38;;;;;;;3.43;63.82;101557.13;4997658;28;20038;-94
2023/04/06 01:42:33;;;;;;;18.70;8.80;;;;;;;3.42;64.10;101550.06;4980199;28;20536;-94
2023/04/06 01:45:03;;;;;;;19.02;8.57;;;;;;;3.47;63.61;101546.91;4968444;28;20054;-94
2023/04/06 01:47:34;;;;;;;18.67;9.10;;;;;;;3.53;64.13;101545.47;5032502;28;20049;-93
2023/04/06 01:49:59;;;;;;;15.40;8.52;;;;;;;3.58;63.13;101546.69;5000120;28;20089;-94
2023/04/06 01:52:32;;;;;;;20.63;9.13;;;;;;;3.68;63.43;101543.97;5017126;28;20022;-93
2023/04/06 01:55:00;;;;;;;18.15;9.50;;;;;;;3.72;63.55;101539.13;4998205;28;20381;-93
2023/04/06 01:57:38;;;;;;;;;;;;;;;;;;;;;
2023/04/06 02:00:08;;;;;;;18.57;8.93;;;;;;;3.86;63.15;101536.72;5000835;28;20037;-93
2023/04/06 02:02:40;;;;;;;21.23;9.20;;;;;;;3.89;63.37;101524.00;4982944;28;20121;-94
2023/04/06 02:05:11;;;;;;;19.75;8.73;;;;;;;4.02;63.04;101529.81;5032271;28;20034;-95
2023/04/06 02:07:59;;;;;;;18.10;9.27;;;;;;;3.96;62.22;101525.09;4983651;28;20073;-94
2023/04/06 02:10:36;;;;;;;21.52;9.98;;;;;;;3.98;62.74;101520.38;4983460;28;20136;-93
2023/04/06 02:13:12;;;;;;;18.33;9.30;;;;;;;4.01;62.18;101512.84;5016799;28;20080;-94
2023/04/06 02:15:37;;;;;;;19.90;10.02;;;;;;;4.00;62.78;101508.50;4999261;28;20025;-93
2023/04/06 02:18:10;;;;;;;22.88;10.32;;;;;;;4.07;63.10;101521.31;4999964;28;20036;-94
2023/04/06 02:20:39;;;;;;;19.05;9.93;;;;;;;4.08;62.69;101507.72;5000202;28;20026;-94
2023/04/06 02:23:07;;;;;;;20.73;9.55;;;;;;;4.20;62.43;101522.56;4999689;28;20034;-93
2023/04/06 02:25:34;;;;;;;20.88;10.23;;;;;;;4.15;62.77;101508.78;4999395;28;20034;-93
2023/04/06 02:28:02;;;;;;;21.90;10.38;;;;;;;4.23;63.02;101507.97;5015678;28;20053;-94
2023/04/06 02:30:29;;;;;;;21.83;10.20;;;;;;;4.17;62.24;101505.94;4998389;28;20128;-94
2023/04/06 02:32:59;;;;;;;17.10;9.45;;;;;;;4.18;62.16;101503.09;5031911;28;20116;-94
2023/04/06 02:35:32;;;;;;;22.00;10.60;;;;;;;4.20;62.37;101500.25;4999810;28;20037;-94
2023/04/06 02:38:08;;;;;;;21.50;10.95;;;;;;;4.14;62.56;101490.97;4998562;28;20120;-93
2023/04/06 02:40:41;;;;;;;21.33;10.20;;;;;;;4.24;62.42;101500.75;4998627;28;20085;-94
2023/04/06 02:43:16;;;;;;;22.92;10.88;;;;;;;4.20;62.26;101492.19;4983008;28;20065;-94
2023/04/06 02:45:49;;;;;;;23.95;11.38;;;;;;;4.24;62.00;101493.56;5006594;28;20054;-93
2023/04/06 02:48:27;;;;;;;;;;;;;;;;;;;;;
2023/04/06 02:50:53;;;;;;;19.77;10.55;;;;;;;4.20;61.92;101474.22;4996658;28;20041;-94
2023/04/06 02:53:18;;;;;;;22.10;10.23;;;;;;;4.25;62.26;101478.28;4979105;28;20117;-93
2023/04/06 02:55:46;;;;;;;20.63;11.40;;;;;;;4.20;62.07;101476.06;4996003;28;20034;-93
2023/04/06 02:58:22;;;;;;;22.52;11.20;;;;;;;4.29;62.57;101487.72;4978865;28;20045;-94
2023/04/06 03:00:50;;;;;;;22.48;12.40;;;;;;;4.19;61.50;101464.50;4994707;28;20042;-93
2023/04/06 03:03:16;;;;;;;24.65;11.45;;;;;;;4.18;61.70;101457.44;4978470;28;20054;-94
2023/04/06 03:06:10;;;;;;;21.38;11.40;;;;;;;4.20;60.85;101463.47;4978377;28;20034;-93
2023/04/06 03:08:37;;;;;;;20.52;11.45;;;;;;;4.18;61.93;101470.03;4996556;28;20110;-93
2023/04/06 03:11:06;;;;;;;22.67;11.85;;;;;;;4.20;62.18;101471.53;4979322;28;20118;-94
2023/04/06 03:13:44;;;;;;;23.67;12.27;;;;;;;4.17;61.75;101461.09;4978791;28;20069;-93
2023/04/06 03:16:22;;;;;;;22.50;11.27;;;;;;;4.25;61.00;101473.72;4948267;28;20065;-94
2023/04/06 03:18:56;;;;;;;23.40;11.73;;;;;;;4.15;61.69;101451.50;4978533;28;20030;-95
2023/04/06 03:21:25;;;;;;;20.15;11.00;;;;;;;4.15;62.00;101447.00;4978425;28;20034;-93
2023/04/06 03:23:52;;;;;;;24.17;11.68;;;;;;;4.21;62.13;101464.34;4995261;28;20374;-94
2023/04/06 03:26:26;;;;;;;27.58;12.10;;;;;;;4.14;62.25;101441.78;4978521;28;20034;-93
2023/04/06 03:29:14;;;;;;;21.85;11.32;;;;;;;4.17;60.94;101444.16;4995144;28;20030;-94
2023/04/06 03:31:42;;;;;;;23.75;11.88;;;;;;;4.16;61.31;101447.84;4979718;28;20073;-93
2023/04/06 03:34:10;;;;;;;21.38;11.32;;;;;;;4.17;61.38;101439.63;4978638;28;20442;-94
2023/04/06 03:36:39;;;;;;;19.92;11.70;;;;;;;4.22;61.26;101449.88;4980197;28;20042;-93
2023/04/06 03:39:08;;;;;;;20.58;11.35;;;;;;;4.17;61.42;101436.09;5014413;28;20030;-92
2023/04/06 03:41:38;;;;;;;22.30;11.45;;;;;;;4.15;61.28;101435.41;4999245;28;20033;-92
2023/04/06 03:44:05;;;;;;;21.48;11.30;;;;;;;4.16;61.30;101440.63;4963499;28;20077;-94
2023/04/06 03:46:33;;;;;;;26.15;11.73;;;;;;;4.27;60.83;101454.81;4992134;28;20079;-94
2023/04/06 03:49:08;;;;;;;22.08;11.00;;;;;;;4.19;61.20;101445.69;4997446;28;20117;-93
2023/04/06 03:51:41;;;;;;;22.02;11.75;;;;;;;4.15;61.47;101436.25;4982531;28;20069;-94
2023/04/06 03:54:14;;;;;;;23.02;11.80;;;;;;;4.12;62.22;101441.09;4981924;28;20049;-93
2023/04/06 03:56:40;;;;;;;23.35;11.82;;;;;;;4.16;61.39;101448.69;4997531;28;20088;-93
2023/04/06 03:59:18;;;;;;;20.67;10.85;;;;;;;4.14;61.09;101447.16;4997126;28;20030;-94
2023/04/06 04:01:46;;;;;;;25.08;11.57;;;;;;;4.06;61.70;101444.41;4998268;28;20065;-93
2023/04/06 04:04:13;;;;;;;22.27;11.82;;;;;;;4.09;61.48;101446.78;4964674;28;20050;-94
2023/04/06 04:06:47;;;;;;;21.55;11.52;;;;;;;4.05;61.44;101446.25;4997388;28;20486;-93
2023/04/06 04:09:20;;;;;;;20.65;11.57;;;;;;;4.02;62.04;101443.91;4982197;28;20034;-93
2023/04/06 04:11:56;;;;;;;;;;;;;;;;;;;;;
2023/04/06 04:14:29;;;;;;;26.02;12.55;;;;;;;3.95;61.85;101442.84;4999092;28;20048;-92
2023/04/06 04:17:04;;;;;;;24.15;12.15;;;;;;;3.89;62.46;101438.09;4997217;28;20030;-93
2023/04/06 04:19:40;;;;;;;23.35;12.25;;;;;;;3.96;62.39;101453.41;4982813;28;20030;-93
2023/04/06 04:22:08;;;;;;;25.73;11.70;;;;;;;3.93;62.69;101447.53;4997446;28;20045;-93
2023/04/06 04:24:42;;;;;;;22.83;12.07;;;;;;;3.86;62.69;101436.56;4997274;28;20026;-93
2023/04/06 04:27:11;;;;;;;21.10;11.18;;;;;;;3.88;62.45;101431.03;4996979;28;20536;-93
2023/04/06 04:29:40;;;;;;;24.42;12.18;;;;;;;3.92;62.66;101445.84;4996890;28;20462;-94
2023/04/06 04:32:17;;;;;;;20.02;11.25;;;;;;;3.91;63.05;101428.03;4997152;28;20076;-93
2023/04/06 04:34:56;;;;;;;22.73;11.82;;;;;;;3.95;62.48;101440.97;4983828;28;20044;-92
2023/04/06 04:37:52;;;;;;;20.67;10.95;;;;;;;4.03;62.58;101445.56;4985313;28;20042;-93
2023/04/06 04:40:25;;;;;;;23.80;11.38;;;;;;;3.96;63.15;101436.47;4972671;28;20045;-93
2023/04/06 04:42:53;;;;;;;20.85;11.50;;;;;;;4.05;63.54;101440.88;5000483;28;20064;-93
2023/04/06 04:45:21;;;;;;;23.10;11.70;;;;;;;4.01;62.41;101434.97;4977815;28;20085;-93
2023/04/06 04:47:49;;;;;;;21.38;11.23;;;;;;;4.08;62.92;101440.56;4977948;28;20035;-93
2023/04/06 04:50:17;;;;;;;22.05;10.90;;;;;;;4.02;62.31;101428.63;4977294;28;20042;-93
2023/04/06 04:52:47;;;;;;;21.05;10.80;;;;;;;4.04;62.53;101423.09;4978216;28;20398;-93
2023/04/06 04:55:19;;;;;;;22.92;11.60;;;;;;;4.12;62.12;101431.22;4961431;28;20510;-93
2023/04/06 04:58:15;;;;;;;;;;;;;;;;;;;;;
2023/04/06 05:00:52;;;;;;;22.48;11.30;;;;;;;4.10;62.77;101414.38;4994180;28;20038;-93
2023/04/06 05:03:28;;;;;;;24.35;11.98;;;;;;;4.15;62.63;101422.81;4962854;28;20037;-93
2023/04/06 05:05:56;;;;;;;23.73;11.90;;;;;;;4.27;62.38;101433.31;4977214;28;20034;-94
2023/04/06 05:08:27;;;;;;;22.23;10.95;;;;;;;4.20;62.45;101419.66;4961126;28;20045;-93
2023/04/06 05:10:59;;;;;;;20.17;10.77;;;;;;;4.29;62.52;101433.97;4961062;28;20038;-93
2023/04/06 05:13:40;;;;;;;22.67;11.15;;;;;;;4.32;61.72;101422.91;4977144;28;20113;-94
2023/04/06 05:16:13;;;;;;;20.52;10.95;;;;;;;4.41;61.84;101434.53;4977207;28;20542;-93
2023/04/06 05:18:41;;;;;;;22.83;10.55;;;;;;;4.37;61.63;101420.56;4962263;28;20484;-92
2023/04/06 05:21:11;;;;;;;21.08;10.07;;;;;;;4.50;61.91;101428.19;4977223;28;20052;-92
2023/04/06 05:23:39;;;;;;;23.42;11.07;;;;;;;4.55;61.70;101431.25;4977284;28;20037;-93
2023/04/06 05:26:05;;;;;;;24.45;11.32;;;;;;;4.54;61.58;101419.66;4978454;28;20498;-92
2023/04/06 05:28:33;;;;;;;19.08;10.55;;;;;;;4.64;61.73;101424.06;4980156;28;20030;-89
2023/04/06 05:31:06;;;;;;;20.67;10.88;;;;;;;4.73;61.61;101426.63;4998325;28;20077;-90
2023/04/06 05:33:34;;;;;;;23.77;11.13;;;;;;;4.74;61.36;101417.56;4980071;28;20042;-89
2023/04/06 05:36:00;;;;;;;21.85;11.30;;;;;;;4.82;60.69;101423.97;4979776;28;20478;-89
2023/04/06 05:38:35;;;;;;;21.80;11.10;;;;;;;4.86;61.05;101428.84;4978600;28;20038;-89
2023/04/06 05:41:05;;;;;;;25.50;11.05;;;;;;;4.83;60.64;101421.09;4964354;28;20097;-89
2023/04/06 05:43:33;;;;;;;27.17;11.65;;;;;;;4.85;61.72;101411.03;4979422;28;20030;-88
2023/04/06 05:45:59;;;;;;;22.70;11.23;;;;;;;4.94;60.61;101424.50;4986771;28;20087;-88
2023/04/06 05:48:24;;;;;;;22.65;11.57;;;;;;;4.99;60.93;101428.38;5016340;28;20498;-88
2023/04/06 05:50:50;;;;;;;23.33;11.13;;;;;;;5.01;60.29;101425.53;4998201;28;20045;-88
2023/04/06 05:53:16;;;;;;;22.42;11.48;;;;;;;5.02;60.50;101419.13;4982700;28;20034;-88
2023/04/06 05:55:42;;;;;;;20.10;11.02;;;;;;;4.95;59.53;101413.56;5015781;28;20022;-88
2023/04/06 05:58:07;;;;;;;21.77;11.00;;;;;;;5.03;59.51;101421.66;4966166;28;20030;-89
2023/04/06 06:00:33;;;;;;;20.73;11.37;;;;;;;5.04;59.43;101417.97;4998017;28;20558;-88
2023/04/06 06:03:08;;;;;;;21.70;11.32;;;;;;;5.01;58.86;101412.91;4998018;28;20535;-89
2023/04/06 06:05:33;;;;;;;22.73;10.77;;;;;;;5.12;58.95;101425.19;4998513;28;20378;-89
2023/04/06 06:08:01;;;;;;;23.30;11.45;;;;;;;5.08;59.33;101424.69;4998224;28;20034;-88
2023/04/06 06:10:27;;;;;;;26.30;11.50;;;;;;;5.16;58.78;101431.94;4997791;28;20076;-89
2023/04/06 06:12:55;;;;;;;21.60;10.88;;;;;;;5.17;58.68;101436.31;4997961;28;20026;-88
2023/04/06 06:15:20;;;;;;;26.67;11.45;;;;;;;5.12;58.50;101430.56;4997674;28;20033;-88
2023/04/06 06:17:46;;;;;;;23.57;11.67;;;;;;;5.07;58.93;101424.88;4981644;28;20030;-88
2023/04/06 06:20:15;;;;;;;20.60;11.80;;;;;;;5.20;59.92;101433.28;4997600;28;20057;-89
2023/04/06 06:22:40;;;;;;;18.90;9.95;;;;;;;5.21;58.91;101428.75;4980916;28;20053;-89
2023/04/06 06:25:06;;;;;;;23.92;10.90;;;;;;;5.17;59.41;101424.72;5015325;28;20387;-88
2023/04/06 06:27:32;;;;;;;22.00;11.20;;;;;;;5.17;59.39;101413.97;4997859;28;20470;-88
2023/04/06 06:30:00;;;;;;;23.53;11.37;;;;;;;5.25;58.83;101419.34;4997040;28;20022;-88
2023/04/06 06:32:26;;;;;;;22.45;10.45;;;;;;;5.33;58.58;101427.44;4981278;28;20030;-88
2023/04/06 06:34:51;;;;;;;22.15;11.25;;;;;;;5.42;59.14;101428.28;4999043;28;20033;-88
2023/04/06 06:37:19;;;;;;;20.33;10.23;;;;;;;5.37;58.81;101407.22;4981076;28;20078;-88
2023/04/06 06:39:47;;;;;;;22.40;11.25;;;;;;;5.41;59.50;101418.53;4981564;28;20038;-88
2023/04/06 06:42:14;;;;;;;23.08;11.63;;;;;;;5.51;58.55;101432.66;4980699;28;20022;-89
2023/04/06 06:44:47;;;;;;;22.17;12.00;;;;;;;5.51;58.94;101426.44;5014833;28;20036;-88
2023/04/06 06:47:14;;;;;;;21.95;11.05;;;;;;;5.60;58.55;101428.13;4978802;28;20046;-88
2023/04/06 06:49:42;;;;;;;21.33;10.55;;;;;;;5.68;57.79;101419.19;4996274;28;20038;-88
2023/04/06 06:52:07;;;;;;;23.02;10.75;;;;;;;5.68;58.29;101411.94;4961833;28;20065;-88
2023/04/06 06:54:35;;;;;;;22.03;10.80;;;;;;;5.80;58.19;101424.06;4961963;28;20058;-88
2023/04/06 06:57:00;;;;;;;20.67;10.88;;;;;;;5.82;57.45;101423.91;4962184;28;20453;-88
2023/04/06 06:59:26;;;;;;;23.03;10.93;;;;;;;5.92;58.48;101426.38;4961019;28;20065;-88
2023/04/06 07:01:54;;;;;;;21.17;10.18;;;;;;;6.04;57.96;101426.91;4961236;28;20363;-88
2023/04/06 07:04:22;;;;;;;22.08;10.85;;;;;;;6.02;58.03;101415.47;4961849;28;20501;-88
2023/04/06 07:06:50;;;;;;;30.75;10.43;;;;;;;6.12;57.27;101425.03;4977478;28;20037;-89
2023/04/06 07:09:18;;;;;;;21.63;10.48;;;;;;;6.06;57.25;101411.44;4978024;28;20038;-89
2023/04/06 07:11:46;;;;;;;24.88;11.38;;;;;;;6.06;57.47;101417.66;4977058;28;20494;-90
2023/04/06 07:14:11;;;;;;;24.63;10.45;;;;;;;6.10;57.25;101410.09;4994951;28;20038;-90
2023/04/06 07:16:37;;;;;;;19.00;10.87;;;;;;;6.07;57.56;101408.56;4977348;28;20034;-90
2023/04/06 07:19:03;;;;;;;26.10;11.70;;;;;;;6.13;57.52;101410.56;4977325;28;20390;-90
2023/04/06 07:21:28;;;;;;;20.67;10.70;;;;;;;6.17;58.47;101411.09;4979490;28;20141;-89
2023/04/06 07:23:56;;;;;;;19.60;11.00;;;;;;;6.19;58.34;101403.66;4997191;28;20046;-89
2023/04/06 07:26:22;;;;;;;19.58;10.82;;;;;;;6.30;57.62;101419.47;4979588;28;20474;-89
2023/04/06 07:28:48;;;;;;;19.38;11.23;;;;;;;6.29;57.78;101408.84;4977991;28;20041;-90
2023/04/06 07:31:13;;;;;;;21.47;10.80;;;;;;;6.37;57.64;101402.59;4977617;28;20501;-88
2023/04/06 07:33:41;;;;;;;20.20;11.07;;;;;;;6.56;57.74;101410.25;5011045;28;20038;-89
2023/04/06 07:36:07;;;;;;;20.33;11.02;;;;;;;6.74;56.85;101420.78;4977950;28;20033;-89
2023/04/06 07:38:42;;;;;;;;;;;;;;;;;;;;;
2023/04/06 07:41:11;;;;;;;21.00;9.98;;;;;;;6.96;56.57;101411.06;4995031;28;20026;-89
2023/04/06 07:43:39;;;;;;;26.38;10.77;;;;;;;6.94;55.99;101405.00;4961012;28;20058;-89
2023/04/06 07:46:04;;;;;;;20.88;11.25;;;;;;;6.98;56.55;101421.66;4995225;28;20105;-89
2023/04/06 07:48:39;;;;;;;20.67;10.63;;;;;;;6.96;56.25;101408.38;4977193;28;20037;-89
2023/04/06 07:51:10;;;;;;;20.40;10.35;;;;;;;6.95;56.09;101404.00;4961396;28;20030;-89
2023/04/06 07:53:36;;;;;;;18.45;10.30;;;;;;;7.02;56.52;101410.34;4977328;28;20030;-89
2023/04/06 07:56:08;;;;;;;25.57;10.00;;;;;;;6.88;55.99;101405.72;4977208;28;20058;-90
2023/04/06 07:58:34;;;;;;;22.65;11.13;;;;;;;6.92;56.85;101409.72;4977461;28;20088;-89
2023/04/06 08:01:05;;;;;;;19.87;9.67;;;;;;;6.98;56.68;101411.75;4993947;28;20033;-89
2023/04/06 08:03:36;;;;;;;22.60;10.77;;;;;;;6.99;56.74;101408.00;4976888;28;20067;-89
2023/04/06 08:06:04;;;;;;;25.48;10.50;;;;;;;6.95;57.03;101405.84;4976873;28;20030;-89
2023/04/06 08:08:32;;;;;;;22.70;10.88;;;;;;;7.07;56.95;101417.94;4994237;28;20030;-88
2023/04/06 08:10:57;;;;;;;23.87;11.00;;;;;;;7.10;57.17;101405.91;4994043;28;20080;-89
2023/04/06 08:13:23;;;;;;;21.80;10.73;;;;;;;7.19;56.79;101419.19;5009177;28;20125;-89
2023/04/06 08:15:49;;;;;;;20.60;10.70;;;;;;;7.23;56.77;101421.53;4977169;28;20033;-89
2023/04/06 08:18:16;;;;;;;23.35;11.25;;;;;;;7.19;57.18;101413.78;4976687;28;20077;-89
2023/04/06 08:20:48;;;;;;;24.88;11.50;;;;;;;7.28;57.50;101409.19;4961042;28;20489;-89
2023/04/06 08:23:14;;;;;;;20.43;10.77;;;;;;;7.44;57.88;101405.53;4977454;28;20042;-89
2023/04/06 08:25:41;;;;;;;21.75;11.35;;;;;;;7.52;57.79;101418.09;4976674;28;20405;-89
2023/04/06 08:28:09;;;;;;;20.20;10.32;;;;;;;7.51;58.08;101416.41;4993390;28;20043;-89
2023/04/06 08:30:42;;;;;;;23.02;10.43;;;;;;;7.41;58.11;101403.19;4976548;28;20054;-89
2023/04/06 08:33:08;;;;;;;24.45;11.65;;;;;;;7.38;58.49;101417.00;4961592;28;20035;-89
2023/04/06 08:35:36;;;;;;;25.33;10.07;;;;;;;7.36;58.21;101406.41;4976325;28;20034;-89
2023/04/06 08:38:17;;;;;;;22.70;11.82;;;;;;;7.37;59.09;101418.88;4976516;28;20034;-89
2023/04/06 08:40:44;;;;;;;21.27;11.30;;;;;;;7.44;58.68;101410.91;5009156;28;20045;-89
2023/04/06 08:43:14;;;;;;;21.58;10.93;;;;;;;7.49;59.30;101413.06;4976364;28;20026;-89
2023/04/06 08:45:49;;;;;;;24.80;11.60;;;;;;;7.57;58.69;101407.59;5008971;28;20521;-89
2023/04/06 08:48:16;;;;;;;24.02;11.55;;;;;;;7.59;59.02;101407.41;4945556;28;20425;-89
2023/04/06 08:50:46;;;;;;;20.30;10.75;;;;;;;7.69;59.07;101422.34;4976376;28;20034;-89
2023/04/06 08:53:23;;;;;;;22.90;11.07;;;;;;;7.73;58.59;101414.72;5008852;28;20117;-89
2023/04/06 08:55:58;;;;;;;22.10;11.30;;;;;;;7.84;59.07;101425.09;4976508;28;20109;-89
2023/04/06 08:58:28;;;;;;;19.58;11.35;;;;;;;8.00;58.60;101432.19;4976187;28;20061;-89
2023/04/06 09:00:55;;;;;;;23.73;11.05;;;;;;;8.05;58.49;101408.16;4976126;28;20121;-89
2023/04/06 09:03:21;;;;;;;22.67;11.23;;;;;;;8.33;58.72;101421.03;4976035;28;20034;-89
2023/04/06 09:05:47;;;;;;;27.05;11.35;;;;;;;8.46;58.51;101416.84;4980184;28;20445;-90
2023/04/06 09:08:18;;;;;;;23.05;11.93;;;;;;;8.62;59.13;101432.06;5013288;28;20038;-89
2023/04/06 09:10:54;;;;;;;;;;;;;;;;;;;;;
2023/04/06 09:13:38;;;;;;;;;;;;;;;;;;;;;
2023/04/06 09:16:07;;;;;;;23.83;11.50;;;;;;;8.33;62.58;101423.75;5001830;28;20125;-89
2023/04/06 09:18:40;;;;;;;23.17;12.10;;;;;;;8.23;64.81;101429.41;5014898;28;20034;-89
2023/04/06 09:21:10;;;;;;;22.55;12.00;;;;;;;8.03;68.12;101425.56;4980601;28;20025;-89
2023/04/06 09:23:48;;;;;;;;;;;;;;;;;;;;;
2023/04/06 09:26:16;;;;;;;24.58;11.82;;;;;;;7.40;71.33;101435.72;5000170;28;20026;-89
2023/04/06 09:28:48;;;;;;;26.40;12.20;;;;;;;7.27;73.81;101441.75;5012874;28;20049;-89
2023/04/06 09:31:18;;;;;;;21.60;11.55;;;;;;;7.30;75.75;101439.53;4980023;28;20042;-89
2023/04/06 09:33:54;;;;;;;25.90;12.00;;;;;;;7.33;73.44;101428.34;4980641;28;20410;-89
2023/04/06 09:36:34;;;;;;;21.50;10.90;;;;;;;7.42;73.19;101425.63;4980232;28;20030;-90
2023/04/06 09:39:06;;;;;;;20.17;10.70;;;;;;;7.66;71.12;101425.41;4979511;28;20367;-89
2023/04/06 09:41:35;;;;;;;20.97;10.33;;;;;;;7.79;71.56;101422.06;4997203;28;20114;-89
2023/04/06 09:44:23;;;;;;;23.05;10.32;;;;;;;7.85;69.44;101431.31;4979474;28;20061;-89
2023/04/06 09:46:52;;;;;;;15.88;9.60;;;;;;;7.97;69.95;101434.41;4978348;28;20397;-89
2023/04/06 09:49:24;;;;;;;17.80;9.70;;;;;;;8.02;70.33;101421.22;4998741;28;20077;-90
2023/04/06 09:51:56;;;;;;;20.27;9.73;;;;;;;8.17;71.61;101429.31;4998992;28;20037;-89
2023/04/06 09:54:30;;;;;;;18.52;9.55;;;;;;;8.12;72.59;101418.22;4998897;28;20493;-89
2023/04/06 09:57:14;;;;;;;14.38;8.43;;;;;;;7.90;75.88;101428.91;5031436;28;20026;-89
2023/04/06 09:59:48;;;;;;;17.77;9.95;;;;;;;7.64;80.91;101429.31;4998478;28;20433;-89
2023/04/06 10:02:34;;;;;;;17.33;9.20;;;;;;;7.47;80.52;101420.50;5031419;28;20540;-89
2023/04/06 10:05:09;;;;;;;17.00;8.65;;;;;;;7.34;84.84;101424.66;5031965;28;20137;-89
2023/04/06 10:07:42;;;;;;;14.63;7.80;;;;;;;7.22;85.23;101428.78;5016526;28;20026;-89
2023/04/06 10:10:19;;;;;;;;;;;;;;;;;;;;;
2023/04/06 10:12:47;;;;;;;18.00;8.95;;;;;;;7.09;92.34;101426.66;5016915;28;20034;-90
2023/04/06 10:15:13;;;;;;;16.13;8.90;;;;;;;7.29;92.44;101435.16;4997419;28;20034;-89
2023/04/06 10:17:54;;;;;;;;;;;;;;;;;;;;;
2023/04/06 10:20:36;;;;;;;19.45;8.20;;;;;;;7.34;88.78;101437.31;5016381;28;20022;-89
2023/04/06 10:23:04;;;;;;;15.63;7.90;;;;;;;7.24;90.96;101442.09;4998453;28;20482;-90
2023/04/06 10:25:38;;;;;;;16.02;8.35;;;;;;;6.99;91.43;101432.28;4998113;28;20485;-88
2023/04/06 10:28:13;;;;;;;17.20;8.50;;;;;;;6.89;93.26;101426.28;4999051;28;20423;-89
2023/04/06 10:30:43;;;;;;;16.33;8.82;;;;;;;6.78;93.99;101426.69;5015583;28;20478;-89
2023/04/06 10:33:20;;;;;;;17.27;8.20;;;;;;;6.67;97.47;101434.16;4981818;28;20030;-89
2023/04/06 10:35:48;;;;;;;12.15;7.10;;;;;;;6.67;95.22;101433.28;4997836;28;20033;-89
2023/04/06 10:38:34;;;;;;;17.15;9.20;;;;;;;6.56;100.00;101428.31;4998632;28;20034;-89
2023/04/06 10:41:27;;;;;;;18.63;8.35;;;;;;;6.64;100.00;101441.72;4998984;28;20421;-89
2023/04/06 10:44:06;;;;;;;;;;;;;;;;;;;;;
2023/04/06 10:46:45;;;;;;;19.67;8.45;;;;;;;6.66;100.00;101424.38;5005429;28;20080;-90
2023/04/06 10:49:16;;;;;;;17.40;7.57;;;;;;;6.71;100.00;101429.22;4969557;28;20041;-90
2023/04/06 10:51:44;;;;;;;17.15;7.80;;;;;;;6.67;100.00;101427.91;4997370;28;20048;-89
2023/04/06 10:54:12;;;;;;;17.02;7.65;;;;;;;6.67;100.00;101419.81;4997369;28;20072;-89
2023/04/06 10:56:40;;;;;;;13.48;6.72;;;;;;;6.68;100.00;101425.03;5014646;28;20470;-89
2023/04/06 10:59:06;;;;;;;12.55;6.43;;;;;;;6.67;100.00;101414.41;4997173;28;20057;-88
2023/04/06 11:01:34;;;;;;;13.55;6.82;;;;;;;6.63;100.00;101413.09;4980139;28;20030;-90
2023/04/06 11:04:07;;;;;;;10.07;6.03;;;;;;;6.70;100.00;101414.06;4997590;28;20026;-88
2023/04/06 11:06:42;;;;;;;13.63;7.68;;;;;;;6.73;100.00;101412.88;4982544;28;20033;-88
2023/04/06 11:09:08;;;;;;;11.20;6.38;;;;;;;6.78;100.00;101411.34;4997526;28;20038;-88
2023/04/06 11:11:38;;;;;;;12.45;6.97;;;;;;;6.66;100.00;101408.19;4996788;28;20471;-89
2023/04/06 11:14:04;;;;;;;14.07;6.07;;;;;;;6.58;100.00;101408.22;4991481;28;20445;-91
2023/04/06 11:16:33;;;;;;;13.00;6.93;;;;;;;6.54;100.00;101401.50;4996386;28;20029;-89
2023/04/06 11:19:03;;;;;;;16.98;8.50;;;;;;;6.64;100.00;101406.69;4992124;28;20184;-88
2023/04/06 11:21:49;;;;;;;13.55;7.63;;;;;;;6.75;100.00;101418.94;4979238;28;20122;-89
2023/04/06 11:24:19;;;;;;;12.13;6.28;;;;;;;6.84;100.00;101418.72;4978632;28;20061;-89
2023/04/06 11:27:00;;;;;;;13.00;7.03;;;;;;;6.79;100.00;101395.97;5013309;28;20068;-89
2023/04/06 11:29:38;;;;;;;;;;;;;;;;;;;;;
2023/04/06 11:32:19;;;;;;;14.43;7.45;;;;;;;6.91;100.00;101388.31;5013326;28;20466;-89
2023/04/06 11:34:47;;;;;;;15.63;8.45;;;;;;;6.94;100.00;101388.81;4995877;28;20478;-89
2023/04/06 11:37:16;;;;;;;16.63;8.93;;;;;;;7.02;100.00;101380.66;4995487;28;20061;-88
2023/04/06 11:39:56;;;;;;;15.10;8.23;;;;;;;7.18;100.00;101401.31;4995356;28;20075;-87
2023/04/06 11:42:29;;;;;;;13.70;8.25;;;;;;;7.12;100.00;101376.91;5009780;28;20069;-88
2023/04/06 11:44:56;;;;;;;15.18;7.50;;;;;;;7.23;100.00;101376.47;4996137;28;20036;-86
2023/04/06 11:47:28;;;;;;;13.82;7.07;;;;;;;7.26;100.00;101370.72;4996013;28;20518;-86
2023/04/06 11:50:02;;;;;;;18.17;8.82;;;;;;;7.34;100.00;101367.13;5012702;28;20029;-88
2023/04/06 11:52:37;;;;;;;14.77;8.00;;;;;;;7.42;100.00;101367.03;4991041;28;20030;-88
2023/04/06 11:55:37;;;;;;;16.80;8.23;;;;;;;7.45;100.00;101366.69;4995211;28;20036;-88
2023/04/06 11:58:05;;;;;;;13.30;6.93;;;;;;;7.58;100.00;101362.53;4994752;28;20115;-88
2023/04/06 12:00:34;;;;;;;13.98;8.02;;;;;;;7.45;100.00;101358.56;4994819;28;20033;-87